sensor_id;sensor_type;location;lat;lon;timestamp;temperature;humidity
67364;HTU21D;54250;45.572;38.086;2024-02-28T00:01:51;0.27;77.60
67364;HTU21D;54250;45.572;38.086;2024-02-28T00:04:17;0.27;77.67
67364;HTU21D;54250;45.572;38.086;2024-02-28T00:06:44;0.25;77.53
67364;HTU21D;54250;45.572;38.086;2024-02-28T00:09:12;0.17;77.50
67364;HTU21D;54250;45.572;38.086;2024-02-28T00:11:46;0.14;77.84
67364;HTU21D;54250;45.572;38.086;2024-02-28T00:14:13;0.06;77.69
67364;HTU21D;54250;45.572;38.086;2024-02-28T00:16:43;0.02;77.66
67364;HTU21D;54250;45.572;38.086;2024-02-28T00:19:09;-0.06;77.93
67364;HTU21D;54250;45.572;38.086;2024-02-28T00:21:38;-0.11;78.02
67364;HTU21D;54250;45.572;38.086;2024-02-28T00:24:05;-0.16;78.05
67364;HTU21D;54250;45.572;38.086;2024-02-28T00:26:31;-0.21;78.14
67364;HTU21D;54250;45.572;38.086;2024-02-28T00:28:57;-0.25;78.43
67364;HTU21D;54250;45.572;38.086;2024-02-28T00:31:23;-0.28;78.46
67364;HTU21D;54250;45.572;38.086;2024-02-28T00:33:49;-0.34;78.90
67364;HTU21D;54250;45.572;38.086;2024-02-28T00:36:15;-0.35;79.10
67364;HTU21D;54250;45.572;38.086;2024-02-28T00:38:42;-0.38;79.35
67364;HTU21D;54250;45.572;38.086;2024-02-28T00:41:08;-0.43;79.39
67364;HTU21D;54250;45.572;38.086;2024-02-28T00:43:34;-0.45;79.49
67364;HTU21D;54250;45.572;38.086;2024-02-28T00:46:00;-0.46;79.49
67364;HTU21D;54250;45.572;38.086;2024-02-28T00:48:26;-0.52;79.57
67364;HTU21D;54250;45.572;38.086;2024-02-28T00:50:53;-0.55;79.88
67364;HTU21D;54250;45.572;38.086;2024-02-28T00:53:20;-0.57;79.85
67364;HTU21D;54250;45.572;38.086;2024-02-28T00:55:46;-0.58;79.86
67364;HTU21D;54250;45.572;38.086;2024-02-28T00:58:12;-0.66;79.78
67364;HTU21D;54250;45.572;38.086;2024-02-28T01:00:38;-0.71;80.01
67364;HTU21D;54250;45.572;38.086;2024-02-28T01:03:04;-0.77;79.91
67364;HTU21D;54250;45.572;38.086;2024-02-28T01:05:30;-0.82;79.89
67364;HTU21D;54250;45.572;38.086;2024-02-28T01:07:56;-0.91;79.88
67364;HTU21D;54250;45.572;38.086;2024-02-28T01:10:22;-0.99;79.83
67364;HTU21D;54250;45.572;38.086;2024-02-28T01:12:49;-1.03;79.89
67364;HTU21D;54250;45.572;38.086;2024-02-28T01:15:15;-1.11;79.88
67364;HTU21D;54250;45.572;38.086;2024-02-28T01:17:41;-1.17;79.78
67364;HTU21D;54250;45.572;38.086;2024-02-28T01:20:07;-1.20;79.96
67364;HTU21D;54250;45.572;38.086;2024-02-28T01:22:34;-1.20;79.91
67364;HTU21D;54250;45.572;38.086;2024-02-28T01:25:02;-1.27;80.01
67364;HTU21D;54250;45.572;38.086;2024-02-28T01:27:28;-1.26;79.88
67364;HTU21D;54250;45.572;38.086;2024-02-28T01:29:54;-1.31;79.99
67364;HTU21D;54250;45.572;38.086;2024-02-28T01:32:20;-1.38;79.97
67364;HTU21D;54250;45.572;38.086;2024-02-28T01:34:46;-1.47;79.91
67364;HTU21D;54250;45.572;38.086;2024-02-28T01:37:12;-1.49;80.24
67364;HTU21D;54250;45.572;38.086;2024-02-28T01:39:38;-1.46;80.41
67364;HTU21D;54250;45.572;38.086;2024-02-28T01:42:04;-1.46;80.47
67364;HTU21D;54250;45.572;38.086;2024-02-28T01:44:30;-1.44;80.82
67364;HTU21D;54250;45.572;38.086;2024-02-28T01:46:56;-1.42;80.66
67364;HTU21D;54250;45.572;38.086;2024-02-28T01:49:24;-1.42;80.78
67364;HTU21D;54250;45.572;38.086;2024-02-28T01:51:52;-1.42;80.88
67364;HTU21D;54250;45.572;38.086;2024-02-28T01:54:20;-1.43;81.11
67364;HTU21D;54250;45.572;38.086;2024-02-28T01:56:46;-1.43;81.17
67364;HTU21D;54250;45.572;38.086;2024-02-28T01:59:13;-1.46;81.17
67364;HTU21D;54250;45.572;38.086;2024-02-28T02:01:39;-1.50;81.36
67364;HTU21D;54250;45.572;38.086;2024-02-28T02:04:05;-1.50;81.69
67364;HTU21D;54250;45.572;38.086;2024-02-28T02:06:32;-1.54;81.68
67364;HTU21D;54250;45.572;38.086;2024-02-28T02:08:58;-1.54;81.78
67364;HTU21D;54250;45.572;38.086;2024-02-28T02:11:24;-1.53;81.99
67364;HTU21D;54250;45.572;38.086;2024-02-28T02:13:53;-1.50;81.91
67364;HTU21D;54250;45.572;38.086;2024-02-28T02:16:20;-1.50;81.95
67364;HTU21D;54250;45.572;38.086;2024-02-28T02:18:52;-1.50;81.93
67364;HTU21D;54250;45.572;38.086;2024-02-28T02:21:20;-1.56;81.90
67364;HTU21D;54250;45.572;38.086;2024-02-28T02:23:48;-1.56;82.19
67364;HTU21D;54250;45.572;38.086;2024-02-28T02:26:14;-1.56;82.17
67364;HTU21D;54250;45.572;38.086;2024-02-28T02:28:40;-1.50;82.32
67364;HTU21D;54250;45.572;38.086;2024-02-28T02:31:06;-1.53;82.33
67364;HTU21D;54250;45.572;38.086;2024-02-28T02:33:31;-1.55;82.64
67364;HTU21D;54250;45.572;38.086;2024-02-28T02:35:58;-1.53;82.78
67364;HTU21D;54250;45.572;38.086;2024-02-28T02:38:24;-1.53;82.81
67364;HTU21D;54250;45.572;38.086;2024-02-28T02:40:50;-1.55;82.87
67364;HTU21D;54250;45.572;38.086;2024-02-28T02:43:17;-1.56;82.87
67364;HTU21D;54250;45.572;38.086;2024-02-28T02:45:43;-1.59;82.52
67364;HTU21D;54250;45.572;38.086;2024-02-28T02:48:09;-1.69;82.48
67364;HTU21D;54250;45.572;38.086;2024-02-28T02:50:35;-1.77;82.46
67364;HTU21D;54250;45.572;38.086;2024-02-28T02:53:02;-1.85;82.21
67364;HTU21D;54250;45.572;38.086;2024-02-28T02:55:29;-2.01;82.20
67364;HTU21D;54250;45.572;38.086;2024-02-28T02:57:55;-2.05;82.39
67364;HTU21D;54250;45.572;38.086;2024-02-28T03:00:21;-2.01;82.48
67364;HTU21D;54250;45.572;38.086;2024-02-28T03:02:47;-2.02;82.42
67364;HTU21D;54250;45.572;38.086;2024-02-28T03:05:13;-2.05;82.82
67364;HTU21D;54250;45.572;38.086;2024-02-28T03:07:39;-2.08;82.77
67364;HTU21D;54250;45.572;38.086;2024-02-28T03:10:06;-2.14;82.78
67364;HTU21D;54250;45.572;38.086;2024-02-28T03:12:32;-2.17;82.72
67364;HTU21D;54250;45.572;38.086;2024-02-28T03:14:58;-2.22;82.46
67364;HTU21D;54250;45.572;38.086;2024-02-28T03:17:24;-2.28;82.50
67364;HTU21D;54250;45.572;38.086;2024-02-28T03:19:50;-2.29;82.42
67364;HTU21D;54250;45.572;38.086;2024-02-28T03:22:16;-2.31;82.52
67364;HTU21D;54250;45.572;38.086;2024-02-28T03:24:42;-2.32;82.61
67364;HTU21D;54250;45.572;38.086;2024-02-28T03:27:08;-2.32;82.62
67364;HTU21D;54250;45.572;38.086;2024-02-28T03:29:34;-2.36;82.58
67364;HTU21D;54250;45.572;38.086;2024-02-28T03:32:00;-2.39;82.90
67364;HTU21D;54250;45.572;38.086;2024-02-28T03:34:25;-2.34;83.20
67364;HTU21D;54250;45.572;38.086;2024-02-28T03:36:51;-2.34;83.41
67364;HTU21D;54250;45.572;38.086;2024-02-28T03:39:17;-2.37;83.68
67364;HTU21D;54250;45.572;38.086;2024-02-28T03:41:43;-2.38;83.74
67364;HTU21D;54250;45.572;38.086;2024-02-28T03:44:09;-2.44;83.79
67364;HTU21D;54250;45.572;38.086;2024-02-28T03:46:36;-2.48;84.04
67364;HTU21D;54250;45.572;38.086;2024-02-28T03:49:02;-2.50;84.36
67364;HTU21D;54250;45.572;38.086;2024-02-28T03:51:28;-2.47;84.39
67364;HTU21D;54250;45.572;38.086;2024-02-28T03:53:55;-2.49;84.52
67364;HTU21D;54250;45.572;38.086;2024-02-28T03:56:25;-2.48;84.46
67364;HTU21D;54250;45.572;38.086;2024-02-28T03:58:51;-2.56;84.81
67364;HTU21D;54250;45.572;38.086;2024-02-28T04:01:18;-2.57;84.77
67364;HTU21D;54250;45.572;38.086;2024-02-28T04:03:44;-2.59;84.80
67364;HTU21D;54250;45.572;38.086;2024-02-28T04:06:10;-2.61;84.71
67364;HTU21D;54250;45.572;38.086;2024-02-28T04:08:36;-2.63;85.06
67364;HTU21D;54250;45.572;38.086;2024-02-28T04:11:03;-2.58;85.24
67364;HTU21D;54250;45.572;38.086;2024-02-28T04:13:29;-2.56;85.06
67364;HTU21D;54250;45.572;38.086;2024-02-28T04:15:55;-2.57;85.06
67364;HTU21D;54250;45.572;38.086;2024-02-28T04:18:21;-2.52;85.13
67364;HTU21D;54250;45.572;38.086;2024-02-28T04:20:47;-2.47;85.09
67364;HTU21D;54250;45.572;38.086;2024-02-28T04:23:13;-2.41;84.89
67364;HTU21D;54250;45.572;38.086;2024-02-28T04:25:38;-2.26;85.03
67364;HTU21D;54250;45.572;38.086;2024-02-28T04:28:09;-1.72;84.64
67364;HTU21D;54250;45.572;38.086;2024-02-28T04:30:34;-1.11;83.02
67364;HTU21D;54250;45.572;38.086;2024-02-28T04:33:01;-0.55;82.39
67364;HTU21D;54250;45.572;38.086;2024-02-28T04:35:27;0.10;81.15
67364;HTU21D;54250;45.572;38.086;2024-02-28T04:37:53;0.79;79.95
67364;HTU21D;54250;45.572;38.086;2024-02-28T04:40:19;1.39;78.86
67364;HTU21D;54250;45.572;38.086;2024-02-28T04:42:45;1.90;77.98
67364;HTU21D;54250;45.572;38.086;2024-02-28T04:45:11;2.32;77.42
67364;HTU21D;54250;45.572;38.086;2024-02-28T04:47:37;2.82;75.79
67364;HTU21D;54250;45.572;38.086;2024-02-28T04:50:04;3.00;75.44
67364;HTU21D;54250;45.572;38.086;2024-02-28T04:52:33;3.08;74.32
67364;HTU21D;54250;45.572;38.086;2024-02-28T04:54:59;2.90;75.32
67364;HTU21D;54250;45.572;38.086;2024-02-28T04:57:25;3.65;74.49
67364;HTU21D;54250;45.572;38.086;2024-02-28T04:59:52;4.59;72.09
67364;HTU21D;54250;45.572;38.086;2024-02-28T05:02:18;5.02;70.89
67364;HTU21D;54250;45.572;38.086;2024-02-28T05:04:44;5.21;71.27
67364;HTU21D;54250;45.572;38.086;2024-02-28T05:07:10;5.63;69.90
67364;HTU21D;54250;45.572;38.086;2024-02-28T05:09:36;5.98;67.84
67364;HTU21D;54250;45.572;38.086;2024-02-28T05:12:02;6.37;67.16
67364;HTU21D;54250;45.572;38.086;2024-02-28T05:14:28;6.80;65.62
67364;HTU21D;54250;45.572;38.086;2024-02-28T05:16:54;7.10;65.11
67364;HTU21D;54250;45.572;38.086;2024-02-28T05:19:20;7.15;63.73
67364;HTU21D;54250;45.572;38.086;2024-02-28T05:21:46;7.33;63.37
67364;HTU21D;54250;45.572;38.086;2024-02-28T05:24:12;7.30;61.77
67364;HTU21D;54250;45.572;38.086;2024-02-28T05:26:38;7.47;61.27
67364;HTU21D;54250;45.572;38.086;2024-02-28T05:29:05;7.50;61.10
67364;HTU21D;54250;45.572;38.086;2024-02-28T05:31:31;7.68;59.65
67364;HTU21D;54250;45.572;38.086;2024-02-28T05:33:58;7.86;59.16
67364;HTU21D;54250;45.572;38.086;2024-02-28T05:36:29;8.01;59.29
67364;HTU21D;54250;45.572;38.086;2024-02-28T05:39:00;8.28;58.07
67364;HTU21D;54250;45.572;38.086;2024-02-28T05:41:27;8.36;58.11
67364;HTU21D;54250;45.572;38.086;2024-02-28T05:43:53;8.45;56.64
67364;HTU21D;54250;45.572;38.086;2024-02-28T05:46:19;8.30;56.91
67364;HTU21D;54250;45.572;38.086;2024-02-28T05:48:46;8.36;56.13
67364;HTU21D;54250;45.572;38.086;2024-02-28T05:51:12;8.16;56.00
67364;HTU21D;54250;45.572;38.086;2024-02-28T05:53:41;8.53;56.23
67364;HTU21D;54250;45.572;38.086;2024-02-28T05:56:10;9.17;55.06
67364;HTU21D;54250;45.572;38.086;2024-02-28T05:58:46;9.55;54.19
67364;HTU21D;54250;45.572;38.086;2024-02-28T06:01:16;9.37;53.27
67364;HTU21D;54250;45.572;38.086;2024-02-28T06:03:45;9.17;53.04
67364;HTU21D;54250;45.572;38.086;2024-02-28T06:06:12;9.01;54.35
67364;HTU21D;54250;45.572;38.086;2024-02-28T06:08:39;9.21;53.21
67364;HTU21D;54250;45.572;38.086;2024-02-28T06:11:06;8.79;53.94
67364;HTU21D;54250;45.572;38.086;2024-02-28T06:13:33;9.01;53.52
67364;HTU21D;54250;45.572;38.086;2024-02-28T06:15:59;9.42;53.39
67364;HTU21D;54250;45.572;38.086;2024-02-28T06:18:26;10.23;52.15
67364;HTU21D;54250;45.572;38.086;2024-02-28T06:20:56;10.59;50.67
67364;HTU21D;54250;45.572;38.086;2024-02-28T06:23:22;10.67;50.76
67364;HTU21D;54250;45.572;38.086;2024-02-28T06:25:49;10.62;50.31
67364;HTU21D;54250;45.572;38.086;2024-02-28T06:28:15;10.93;50.41
67364;HTU21D;54250;45.572;38.086;2024-02-28T06:30:43;11.28;49.45
67364;HTU21D;54250;45.572;38.086;2024-02-28T06:33:09;11.48;48.92
67364;HTU21D;54250;45.572;38.086;2024-02-28T06:35:35;11.87;48.68
67364;HTU21D;54250;45.572;38.086;2024-02-28T06:38:01;12.30;47.55
67364;HTU21D;54250;45.572;38.086;2024-02-28T06:40:27;12.08;47.48
67364;HTU21D;54250;45.572;38.086;2024-02-28T06:42:54;12.62;47.92
67364;HTU21D;54250;45.572;38.086;2024-02-28T06:45:20;13.19;46.56
67364;HTU21D;54250;45.572;38.086;2024-02-28T06:47:46;12.94;45.50
67364;HTU21D;54250;45.572;38.086;2024-02-28T06:50:12;12.32;45.85
67364;HTU21D;54250;45.572;38.086;2024-02-28T06:52:38;12.13;46.54
67364;HTU21D;54250;45.572;38.086;2024-02-28T06:55:04;12.26;46.74
67364;HTU21D;54250;45.572;38.086;2024-02-28T06:57:40;12.41;46.41
67364;HTU21D;54250;45.572;38.086;2024-02-28T07:00:08;12.75;45.58
67364;HTU21D;54250;45.572;38.086;2024-02-28T07:02:37;12.74;45.16
67364;HTU21D;54250;45.572;38.086;2024-02-28T07:05:04;12.45;44.64
67364;HTU21D;54250;45.572;38.086;2024-02-28T07:07:33;12.33;45.96
67364;HTU21D;54250;45.572;38.086;2024-02-28T07:09:59;13.25;44.94
67364;HTU21D;54250;45.572;38.086;2024-02-28T07:12:25;13.36;44.03
67364;HTU21D;54250;45.572;38.086;2024-02-28T07:14:51;13.33;44.20
67364;HTU21D;54250;45.572;38.086;2024-02-28T07:17:17;13.68;44.14
67364;HTU21D;54250;45.572;38.086;2024-02-28T07:19:43;14.53;42.52
67364;HTU21D;54250;45.572;38.086;2024-02-28T07:22:10;13.79;42.83
67364;HTU21D;54250;45.572;38.086;2024-02-28T07:24:35;13.80;43.33
67364;HTU21D;54250;45.572;38.086;2024-02-28T07:27:03;14.51;42.86
67364;HTU21D;54250;45.572;38.086;2024-02-28T07:29:29;15.15;42.19
67364;HTU21D;54250;45.572;38.086;2024-02-28T07:31:55;14.56;41.56
67364;HTU21D;54250;45.572;38.086;2024-02-28T07:34:21;14.27;42.25
67364;HTU21D;54250;45.572;38.086;2024-02-28T07:36:47;14.43;42.54
67364;HTU21D;54250;45.572;38.086;2024-02-28T07:39:13;14.87;41.52
67364;HTU21D;54250;45.572;38.086;2024-02-28T07:41:39;15.06;41.23
67364;HTU21D;54250;45.572;38.086;2024-02-28T07:44:07;14.78;40.58
67364;HTU21D;54250;45.572;38.086;2024-02-28T07:46:34;14.14;41.54
67364;HTU21D;54250;45.572;38.086;2024-02-28T07:49:01;14.01;42.18
67364;HTU21D;54250;45.572;38.086;2024-02-28T07:51:28;14.82;41.61
67364;HTU21D;54250;45.572;38.086;2024-02-28T07:53:54;15.18;41.11
67364;HTU21D;54250;45.572;38.086;2024-02-28T07:56:20;15.86;40.58
67364;HTU21D;54250;45.572;38.086;2024-02-28T07:58:46;15.97;39.25
67364;HTU21D;54250;45.572;38.086;2024-02-28T08:01:13;15.61;40.01
67364;HTU21D;54250;45.572;38.086;2024-02-28T08:03:38;15.54;39.78
67364;HTU21D;54250;45.572;38.086;2024-02-28T08:06:05;15.71;40.37
67364;HTU21D;54250;45.572;38.086;2024-02-28T08:08:30;16.20;39.23
67364;HTU21D;54250;45.572;38.086;2024-02-28T08:10:56;15.71;39.43
67364;HTU21D;54250;45.572;38.086;2024-02-28T08:13:22;15.91;39.43
67364;HTU21D;54250;45.572;38.086;2024-02-28T08:15:48;15.34;39.10
67364;HTU21D;54250;45.572;38.086;2024-02-28T08:18:14;15.37;40.33
67364;HTU21D;54250;45.572;38.086;2024-02-28T08:20:40;15.75;39.36
67364;HTU21D;54250;45.572;38.086;2024-02-28T08:23:06;15.92;39.07
67364;HTU21D;54250;45.572;38.086;2024-02-28T08:25:32;15.98;39.45
67364;HTU21D;54250;45.572;38.086;2024-02-28T08:27:58;15.66;38.75
67364;HTU21D;54250;45.572;38.086;2024-02-28T08:30:24;15.69;39.07
67364;HTU21D;54250;45.572;38.086;2024-02-28T08:32:51;15.48;38.78
67364;HTU21D;54250;45.572;38.086;2024-02-28T08:35:18;15.74;38.97
67364;HTU21D;54250;45.572;38.086;2024-02-28T08:37:44;15.38;39.10
67364;HTU21D;54250;45.572;38.086;2024-02-28T08:40:11;15.26;38.91
67364;HTU21D;54250;45.572;38.086;2024-02-28T08:42:38;15.41;39.42
67364;HTU21D;54250;45.572;38.086;2024-02-28T08:45:04;16.20;38.95
67364;HTU21D;54250;45.572;38.086;2024-02-28T08:47:31;16.49;38.09
67364;HTU21D;54250;45.572;38.086;2024-02-28T08:49:57;16.48;38.34
67364;HTU21D;54250;45.572;38.086;2024-02-28T08:52:23;16.40;38.21
67364;HTU21D;54250;45.572;38.086;2024-02-28T08:54:49;16.15;38.38
67364;HTU21D;54250;45.572;38.086;2024-02-28T08:57:15;16.43;38.98
67364;HTU21D;54250;45.572;38.086;2024-02-28T08:59:42;16.43;37.69
67364;HTU21D;54250;45.572;38.086;2024-02-28T09:02:08;16.67;38.54
67364;HTU21D;54250;45.572;38.086;2024-02-28T09:04:36;17.07;37.99
67364;HTU21D;54250;45.572;38.086;2024-02-28T09:07:02;17.34;38.40
67364;HTU21D;54250;45.572;38.086;2024-02-28T09:09:28;17.64;37.01
67364;HTU21D;54250;45.572;38.086;2024-02-28T09:11:57;16.73;37.01
67364;HTU21D;54250;45.572;38.086;2024-02-28T09:14:23;16.41;37.82
67364;HTU21D;54250;45.572;38.086;2024-02-28T09:16:49;16.45;37.92
67364;HTU21D;54250;45.572;38.086;2024-02-28T09:19:15;16.72;37.47
67364;HTU21D;54250;45.572;38.086;2024-02-28T09:21:42;16.61;38.31
67364;HTU21D;54250;45.572;38.086;2024-02-28T09:24:08;17.08;37.98
67364;HTU21D;54250;45.572;38.086;2024-02-28T09:26:38;17.35;36.82
67364;HTU21D;54250;45.572;38.086;2024-02-28T09:29:04;16.74;37.64
67364;HTU21D;54250;45.572;38.086;2024-02-28T09:31:30;16.49;38.09
67364;HTU21D;54250;45.572;38.086;2024-02-28T09:33:56;16.77;38.00
67364;HTU21D;54250;45.572;38.086;2024-02-28T09:36:24;16.33;38.13
67364;HTU21D;54250;45.572;38.086;2024-02-28T09:38:49;16.42;38.30
67364;HTU21D;54250;45.572;38.086;2024-02-28T09:41:15;16.54;38.02
67364;HTU21D;54250;45.572;38.086;2024-02-28T09:43:42;16.47;38.09
67364;HTU21D;54250;45.572;38.086;2024-02-28T09:46:08;16.55;38.30
67364;HTU21D;54250;45.572;38.086;2024-02-28T09:48:41;16.67;38.14
67364;HTU21D;54250;45.572;38.086;2024-02-28T09:51:08;16.60;38.26
67364;HTU21D;54250;45.572;38.086;2024-02-28T09:53:35;16.67;38.30
67364;HTU21D;54250;45.572;38.086;2024-02-28T09:56:03;16.67;37.85
67364;HTU21D;54250;45.572;38.086;2024-02-28T09:58:30;16.67;38.33
67364;HTU21D;54250;45.572;38.086;2024-02-28T10:00:59;16.57;37.66
67364;HTU21D;54250;45.572;38.086;2024-02-28T10:03:30;16.36;38.38
67364;HTU21D;54250;45.572;38.086;2024-02-28T10:05:57;16.21;38.69
67364;HTU21D;54250;45.572;38.086;2024-02-28T10:08:24;16.10;38.80
67364;HTU21D;54250;45.572;38.086;2024-02-28T10:10:50;16.27;38.68
67364;HTU21D;54250;45.572;38.086;2024-02-28T10:13:20;16.42;38.70
67364;HTU21D;54250;45.572;38.086;2024-02-28T10:15:48;16.49;38.62
67364;HTU21D;54250;45.572;38.086;2024-02-28T10:18:14;16.37;38.62
67364;HTU21D;54250;45.572;38.086;2024-02-28T10:20:40;16.12;38.81
67364;HTU21D;54250;45.572;38.086;2024-02-28T10:23:07;16.13;39.17
67364;HTU21D;54250;45.572;38.086;2024-02-28T10:25:42;15.98;38.82
67364;HTU21D;54250;45.572;38.086;2024-02-28T10:28:09;15.48;39.17
67364;HTU21D;54250;45.572;38.086;2024-02-28T10:30:42;15.21;39.71
67364;HTU21D;54250;45.572;38.086;2024-02-28T10:33:12;15.14;39.94
67364;HTU21D;54250;45.572;38.086;2024-02-28T10:35:40;15.09;39.81
67364;HTU21D;54250;45.572;38.086;2024-02-28T10:38:10;14.86;40.46
67364;HTU21D;54250;45.572;38.086;2024-02-28T10:40:37;14.09;41.59
67364;HTU21D;54250;45.572;38.086;2024-02-28T10:43:04;13.60;42.85
67364;HTU21D;54250;45.572;38.086;2024-02-28T10:45:36;13.71;42.98
67364;HTU21D;54250;45.572;38.086;2024-02-28T10:48:03;13.94;42.29
67364;HTU21D;54250;45.572;38.086;2024-02-28T10:50:29;13.92;42.21
67364;HTU21D;54250;45.572;38.086;2024-02-28T10:53:00;13.76;42.22
67364;HTU21D;54250;45.572;38.086;2024-02-28T10:55:35;12.84;43.18
67364;HTU21D;54250;45.572;38.086;2024-02-28T10:58:07;11.64;45.38
67364;HTU21D;54250;45.572;38.086;2024-02-28T11:00:35;10.81;47.17
67364;HTU21D;54250;45.572;38.086;2024-02-28T11:03:01;10.39;48.52
67364;HTU21D;54250;45.572;38.086;2024-02-28T11:05:38;10.10;49.27
67364;HTU21D;54250;45.572;38.086;2024-02-28T11:08:11;9.91;49.89
67364;HTU21D;54250;45.572;38.086;2024-02-28T11:10:41;9.74;50.77
67364;HTU21D;54250;45.572;38.086;2024-02-28T11:13:24;9.69;50.84
67364;HTU21D;54250;45.572;38.086;2024-02-28T11:15:51;9.56;51.03
67364;HTU21D;54250;45.572;38.086;2024-02-28T11:18:17;9.51;51.22
67364;HTU21D;54250;45.572;38.086;2024-02-28T11:20:43;9.49;51.43
67364;HTU21D;54250;45.572;38.086;2024-02-28T11:23:12;9.49;51.77
67364;HTU21D;54250;45.572;38.086;2024-02-28T11:25:40;9.42;52.09
67364;HTU21D;54250;45.572;38.086;2024-02-28T11:28:07;9.45;52.17
67364;HTU21D;54250;45.572;38.086;2024-02-28T11:30:33;9.40;52.07
67364;HTU21D;54250;45.572;38.086;2024-02-28T11:32:59;9.33;52.05
67364;HTU21D;54250;45.572;38.086;2024-02-28T11:35:28;9.36;52.21
67364;HTU21D;54250;45.572;38.086;2024-02-28T11:37:55;9.46;52.39
67364;HTU21D;54250;45.572;38.086;2024-02-28T11:40:24;9.46;52.20
67364;HTU21D;54250;45.572;38.086;2024-02-28T11:42:54;9.46;52.56
67364;HTU21D;54250;45.572;38.086;2024-02-28T11:45:21;9.46;52.35
67364;HTU21D;54250;45.572;38.086;2024-02-28T11:47:47;9.46;52.75
67364;HTU21D;54250;45.572;38.086;2024-02-28T11:50:15;9.50;52.72
67364;HTU21D;54250;45.572;38.086;2024-02-28T11:52:44;9.63;52.71
67364;HTU21D;54250;45.572;38.086;2024-02-28T11:55:10;9.79;52.49
67364;HTU21D;54250;45.572;38.086;2024-02-28T11:57:37;9.76;52.48
67364;HTU21D;54250;45.572;38.086;2024-02-28T12:00:07;9.70;52.64
67364;HTU21D;54250;45.572;38.086;2024-02-28T12:02:36;9.63;52.63
67364;HTU21D;54250;45.572;38.086;2024-02-28T12:05:03;9.63;52.84
67364;HTU21D;54250;45.572;38.086;2024-02-28T12:07:32;9.74;52.52
67364;HTU21D;54250;45.572;38.086;2024-02-28T12:09:58;9.78;52.42
67364;HTU21D;54250;45.572;38.086;2024-02-28T12:12:26;9.76;52.19
67364;HTU21D;54250;45.572;38.086;2024-02-28T12:14:52;9.80;52.47
67364;HTU21D;54250;45.572;38.086;2024-02-28T12:17:18;9.84;52.49
67364;HTU21D;54250;45.572;38.086;2024-02-28T12:19:44;9.83;52.60
67364;HTU21D;54250;45.572;38.086;2024-02-28T12:22:10;9.81;52.34
67364;HTU21D;54250;45.572;38.086;2024-02-28T12:24:36;9.76;52.53
67364;HTU21D;54250;45.572;38.086;2024-02-28T12:27:03;9.78;52.69
67364;HTU21D;54250;45.572;38.086;2024-02-28T12:29:28;9.83;52.77
67364;HTU21D;54250;45.572;38.086;2024-02-28T12:31:54;9.84;52.75
67364;HTU21D;54250;45.572;38.086;2024-02-28T12:34:21;9.88;52.72
67364;HTU21D;54250;45.572;38.086;2024-02-28T12:36:47;9.89;52.53
67364;HTU21D;54250;45.572;38.086;2024-02-28T12:39:13;9.88;52.51
67364;HTU21D;54250;45.572;38.086;2024-02-28T12:41:39;9.90;52.71
67364;HTU21D;54250;45.572;38.086;2024-02-28T12:44:06;9.92;52.66
67364;HTU21D;54250;45.572;38.086;2024-02-28T12:46:33;9.93;52.70
67364;HTU21D;54250;45.572;38.086;2024-02-28T12:48:59;9.92;52.27
67364;HTU21D;54250;45.572;38.086;2024-02-28T12:51:42;9.91;52.18
67364;HTU21D;54250;45.572;38.086;2024-02-28T12:54:09;9.94;52.24
67364;HTU21D;54250;45.572;38.086;2024-02-28T12:56:36;9.98;52.17
67364;HTU21D;54250;45.572;38.086;2024-02-28T12:59:03;10.01;52.07
67364;HTU21D;54250;45.572;38.086;2024-02-28T13:01:29;10.00;52.12
67364;HTU21D;54250;45.572;38.086;2024-02-28T13:03:56;10.00;51.76
67364;HTU21D;54250;45.572;38.086;2024-02-28T13:06:22;9.97;51.65
67364;HTU21D;54250;45.572;38.086;2024-02-28T13:08:48;9.99;51.68
67364;HTU21D;54250;45.572;38.086;2024-02-28T13:11:18;10.04;51.76
67364;HTU21D;54250;45.572;38.086;2024-02-28T13:13:50;10.04;51.59
67364;HTU21D;54250;45.572;38.086;2024-02-28T13:16:18;10.03;51.20
67364;HTU21D;54250;45.572;38.086;2024-02-28T13:18:44;9.99;50.95
67364;HTU21D;54250;45.572;38.086;2024-02-28T13:21:10;9.97;50.96
67364;HTU21D;54250;45.572;38.086;2024-02-28T13:23:37;9.93;50.94
67364;HTU21D;54250;45.572;38.086;2024-02-28T13:26:04;9.89;50.74
67364;HTU21D;54250;45.572;38.086;2024-02-28T13:28:30;9.84;50.85
67364;HTU21D;54250;45.572;38.086;2024-02-28T13:30:57;9.83;50.88
67364;HTU21D;54250;45.572;38.086;2024-02-28T13:33:23;9.82;51.14
67364;HTU21D;54250;45.572;38.086;2024-02-28T13:35:49;9.79;51.24
67364;HTU21D;54250;45.572;38.086;2024-02-28T13:38:16;9.78;51.37
67364;HTU21D;54250;45.572;38.086;2024-02-28T13:40:42;9.80;51.56
67364;HTU21D;54250;45.572;38.086;2024-02-28T13:43:11;9.77;51.62
67364;HTU21D;54250;45.572;38.086;2024-02-28T13:45:40;9.76;51.40
67364;HTU21D;54250;45.572;38.086;2024-02-28T13:48:16;9.74;51.30
67364;HTU21D;54250;45.572;38.086;2024-02-28T13:50:44;9.70;51.39
67364;HTU21D;54250;45.572;38.086;2024-02-28T13:53:11;9.70;51.42
67364;HTU21D;54250;45.572;38.086;2024-02-28T13:55:38;9.66;51.62
67364;HTU21D;54250;45.572;38.086;2024-02-28T13:58:05;9.65;51.78
67364;HTU21D;54250;45.572;38.086;2024-02-28T14:00:32;9.64;51.81
67364;HTU21D;54250;45.572;38.086;2024-02-28T14:03:01;9.59;51.83
67364;HTU21D;54250;45.572;38.086;2024-02-28T14:05:28;9.56;51.85
67364;HTU21D;54250;45.572;38.086;2024-02-28T14:07:55;9.52;52.00
67364;HTU21D;54250;45.572;38.086;2024-02-28T14:10:23;9.48;52.06
67364;HTU21D;54250;45.572;38.086;2024-02-28T14:12:50;9.42;52.11
67364;HTU21D;54250;45.572;38.086;2024-02-28T14:15:21;9.40;52.07
67364;HTU21D;54250;45.572;38.086;2024-02-28T14:17:51;9.34;52.15
67364;HTU21D;54250;45.572;38.086;2024-02-28T14:20:17;9.32;52.10
67364;HTU21D;54250;45.572;38.086;2024-02-28T14:22:43;9.24;52.26
67364;HTU21D;54250;45.572;38.086;2024-02-28T14:25:15;9.21;52.24
67364;HTU21D;54250;45.572;38.086;2024-02-28T14:27:45;9.18;52.26
67364;HTU21D;54250;45.572;38.086;2024-02-28T14:30:11;9.07;52.53
67364;HTU21D;54250;45.572;38.086;2024-02-28T14:32:39;8.92;52.82
67364;HTU21D;54250;45.572;38.086;2024-02-28T14:35:08;8.83;53.04
67364;HTU21D;54250;45.572;38.086;2024-02-28T14:37:36;8.73;53.23
67364;HTU21D;54250;45.572;38.086;2024-02-28T14:40:03;8.62;53.34
67364;HTU21D;54250;45.572;38.086;2024-02-28T14:42:42;8.53;53.51
67364;HTU21D;54250;45.572;38.086;2024-02-28T14:45:09;8.50;53.54
67364;HTU21D;54250;45.572;38.086;2024-02-28T14:47:39;8.43;53.66
67364;HTU21D;54250;45.572;38.086;2024-02-28T14:50:06;8.32;53.79
67364;HTU21D;54250;45.572;38.086;2024-02-28T14:52:39;8.18;53.96
67364;HTU21D;54250;45.572;38.086;2024-02-28T14:55:07;8.00;54.17
67364;HTU21D;54250;45.572;38.086;2024-02-28T14:57:33;7.87;54.45
67364;HTU21D;54250;45.572;38.086;2024-02-28T14:59:59;7.76;54.63
67364;HTU21D;54250;45.572;38.086;2024-02-28T15:02:25;7.69;54.75
67364;HTU21D;54250;45.572;38.086;2024-02-28T15:04:51;7.67;54.81
67364;HTU21D;54250;45.572;38.086;2024-02-28T15:07:17;7.55;54.94